createdAt,value
2023-01-13T00:02:16.304Z,23.30
2023-01-13T00:04:43.163Z,22.52
2023-01-13T00:07:10.018Z,20.10
2023-01-13T00:09:36.765Z,19.50
2023-01-13T00:12:03.512Z,16.35
2023-01-13T00:14:33.404Z,14.52
2023-01-13T00:17:00.193Z,19.45
2023-01-13T00:19:26.877Z,15.35
2023-01-13T00:21:53.620Z,23.80
2023-01-13T00:24:20.325Z,16.08
2023-01-13T00:26:47.160Z,19.55
2023-01-13T00:29:13.946Z,17.67
2023-01-13T00:31:41.394Z,21.02
2023-01-13T00:34:08.099Z,17.23
2023-01-13T00:36:34.947Z,19.58
2023-01-13T00:39:01.774Z,15.95
2023-01-13T00:41:29.206Z,15.38
2023-01-13T00:43:55.985Z,14.93
2023-01-13T00:46:23.287Z,15.65
2023-01-13T00:48:51.586Z,11.63
2023-01-13T00:51:18.392Z,14.15
2023-01-13T00:53:45.111Z,11.25
2023-01-13T00:56:14.386Z,14.23
2023-01-13T00:58:41.142Z,18.80
2023-01-13T01:01:08.111Z,13.55
2023-01-13T01:03:34.909Z,12.77
2023-01-13T01:06:01.650Z,9.27
2023-01-13T01:08:28.409Z,14.15
2023-01-13T01:10:55.127Z,10.40
2023-01-13T01:13:21.842Z,10.80
2023-01-13T01:15:48.726Z,19.70
2023-01-13T01:18:15.453Z,13.95
2023-01-13T01:20:42.160Z,12.80
2023-01-13T01:23:08.965Z,20.80
2023-01-13T01:25:35.741Z,14.60
2023-01-13T01:28:02.457Z,20.65
2023-01-13T01:30:29.176Z,16.23
2023-01-13T01:32:57.333Z,17.80
2023-01-13T01:35:24.069Z,16.17
2023-01-13T01:37:50.787Z,18.30
2023-01-13T01:40:17.495Z,14.68
2023-01-13T01:43:02.835Z,10.70
2023-01-13T01:45:30.642Z,15.75
2023-01-13T01:47:57.407Z,16.35
2023-01-13T01:50:24.163Z,21.88
2023-01-13T01:52:50.909Z,12.70
2023-01-13T01:55:17.616Z,17.05
2023-01-13T01:57:44.334Z,17.70
2023-01-13T02:00:11.069Z,16.75
2023-01-13T02:02:40.733Z,22.50
2023-01-13T02:05:07.523Z,19.45
2023-01-13T02:07:34.275Z,20.05
2023-01-13T02:10:01.004Z,18.85
2023-01-13T02:12:30.554Z,19.35
2023-01-13T02:14:57.294Z,19.55
2023-01-13T02:17:24.018Z,16.98
2023-01-13T02:19:50.746Z,21.70
2023-01-13T02:22:17.482Z,18.70
2023-01-13T02:24:56.636Z,19.70
2023-01-13T02:27:23.736Z,18.70
2023-01-13T02:30:09.494Z,12.68
2023-01-13T02:32:36.235Z,18.45
2023-01-13T02:35:03.259Z,17.98
2023-01-13T02:37:29.962Z,23.85
2023-01-13T02:39:56.689Z,21.25
2023-01-13T02:42:42.227Z,27.90
2023-01-13T02:45:09.021Z,18.23
2023-01-13T02:47:35.727Z,14.95
2023-01-13T02:50:02.455Z,17.63
2023-01-13T02:52:29.195Z,19.02
2023-01-13T02:54:55.921Z,18.70
2023-01-13T02:57:22.691Z,18.67
2023-01-13T02:59:49.429Z,20.65
2023-01-13T03:02:16.367Z,17.35
2023-01-13T03:04:43.205Z,19.15
2023-01-13T03:07:09.891Z,17.65
2023-01-13T03:09:36.568Z,17.02
2023-01-13T03:12:03.381Z,17.23
2023-01-13T03:14:30.083Z,19.20
2023-01-13T03:16:56.778Z,16.85
2023-01-13T03:19:24.869Z,18.83
2023-01-13T03:21:51.600Z,15.77
2023-01-13T03:24:18.348Z,19.05
2023-01-13T03:26:45.038Z,19.58
2023-01-13T03:29:11.948Z,20.25
2023-01-13T03:31:38.750Z,15.75
2023-01-13T03:34:05.617Z,15.93
2023-01-13T03:36:32.359Z,22.80
2023-01-13T03:38:59.113Z,18.48
2023-01-13T03:41:25.809Z,19.95
2023-01-13T03:44:28.011Z,17.67
2023-01-13T03:46:54.709Z,16.80
2023-01-13T03:49:21.425Z,18.70
2023-01-13T03:51:48.207Z,20.52
2023-01-13T03:54:15.581Z,17.83
2023-01-13T03:56:42.255Z,15.25
2023-01-13T03:59:08.985Z,20.80
2023-01-13T04:01:35.806Z,18.30
2023-01-13T04:04:02.735Z,22.20
2023-01-13T04:06:29.528Z,21.88
2023-01-13T04:08:56.361Z,20.42
2023-01-13T04:11:23.095Z,17.50
2023-01-13T04:13:49.807Z,17.63
2023-01-13T04:16:16.583Z,19.85
2023-01-13T04:18:43.311Z,14.32
2023-01-13T04:21:10.036Z,22.35
2023-01-13T04:23:36.841Z,23.52
2023-01-13T04:26:03.525Z,18.77
2023-01-13T04:28:30.233Z,18.75
2023-01-13T04:30:56.982Z,20.08
2023-01-13T04:33:23.747Z,21.30
2023-01-13T04:35:50.481Z,21.90
2023-01-13T04:38:17.151Z,23.27
2023-01-13T04:40:43.839Z,19.50
2023-01-13T04:43:10.567Z,21.05
2023-01-13T04:45:37.335Z,23.77
2023-01-13T04:48:04.041Z,19.70
2023-01-13T04:50:30.764Z,18.90
2023-01-13T04:52:57.542Z,18.63
2023-01-13T04:55:24.268Z,21.38
2023-01-13T04:57:51.018Z,20.80
2023-01-13T05:00:17.802Z,21.58
2023-01-13T05:02:44.554Z,22.50
2023-01-13T05:05:11.306Z,13.05
2023-01-13T05:07:38.033Z,21.75
2023-01-13T05:10:04.993Z,20.63
2023-01-13T05:12:50.181Z,20.27
2023-01-13T05:15:35.711Z,20.27
2023-01-13T05:18:02.446Z,16.23
2023-01-13T05:20:29.208Z,19.25
2023-01-13T05:23:14.552Z,14.80
2023-01-13T05:25:44.002Z,23.23
2023-01-13T05:28:10.931Z,20.90
2023-01-13T05:30:38.043Z,19.77
2023-01-13T05:33:04.727Z,19.80
2023-01-13T05:35:31.470Z,19.13
2023-01-13T05:37:58.166Z,18.50
2023-01-13T05:40:43.393Z,16.67
2023-01-13T05:43:25.288Z,14.63
2023-01-13T05:45:52.114Z,20.50
2023-01-13T05:48:19.200Z,19.27
2023-01-13T05:50:46.107Z,16.15
2023-01-13T05:53:12.895Z,13.57
2023-01-13T05:55:39.793Z,17.13
2023-01-13T05:58:06.449Z,17.35
2023-01-13T06:00:33.185Z,17.60
2023-01-13T06:02:59.900Z,12.73
2023-01-13T06:05:26.697Z,12.73
2023-01-13T06:07:53.368Z,15.18
2023-01-13T06:10:20.038Z,13.13
2023-01-13T06:12:46.759Z,17.73
2023-01-13T06:15:13.447Z,16.77
2023-01-13T06:17:40.133Z,14.60
2023-01-13T06:20:09.233Z,19.02
2023-01-13T06:22:36.528Z,15.18
2023-01-13T06:25:03.326Z,17.70
2023-01-13T06:27:30.359Z,13.73
2023-01-13T06:29:57.276Z,15.15
2023-01-13T06:32:23.991Z,20.77
2023-01-13T06:34:50.671Z,20.75
2023-01-13T06:37:18.043Z,18.80
2023-01-13T06:39:45.013Z,18.33
2023-01-13T06:42:30.539Z,15.50
2023-01-13T06:44:57.249Z,20.77
2023-01-13T06:47:24.036Z,20.85
2023-01-13T06:49:50.761Z,27.63
2023-01-13T06:52:17.497Z,25.13
2023-01-13T06:54:44.213Z,22.63
2023-01-13T06:57:10.902Z,17.48
2023-01-13T06:59:37.652Z,18.42
2023-01-13T07:02:04.534Z,15.52
2023-01-13T07:04:31.421Z,19.33
2023-01-13T07:06:58.160Z,14.02
2023-01-13T07:09:24.849Z,17.70
2023-01-13T07:11:52.848Z,18.25
2023-01-13T07:14:52.130Z,17.42
2023-01-13T07:17:25.152Z,18.63
2023-01-13T07:19:52.189Z,19.35
2023-01-13T07:22:18.971Z,16.45
2023-01-13T07:24:45.691Z,20.40
2023-01-13T07:27:12.536Z,20.83
2023-01-13T07:29:39.767Z,19.38
2023-01-13T07:32:07.828Z,17.23
2023-01-13T07:34:34.632Z,20.67
2023-01-13T07:37:01.344Z,21.70
2023-01-13T07:39:28.093Z,16.08
2023-01-13T07:42:13.477Z,22.58
2023-01-13T07:44:41.192Z,17.67
2023-01-13T07:47:10.465Z,25.80
2023-01-13T07:49:37.195Z,14.15
2023-01-13T07:52:04.104Z,17.08
2023-01-13T07:54:40.283Z,24.73
2023-01-13T07:57:07.586Z,21.67
2023-01-13T07:59:34.302Z,21.08
2023-01-13T08:02:01.257Z,19.45
2023-01-13T08:04:28.112Z,19.52
2023-01-13T08:06:55.259Z,20.63
2023-01-13T08:09:22.004Z,16.00
2023-01-13T08:12:08.663Z,21.85
2023-01-13T08:14:35.589Z,25.42
2023-01-13T08:17:02.349Z,15.32
2023-01-13T08:19:29.028Z,20.52
2023-01-13T08:21:55.732Z,24.20
2023-01-13T08:24:22.554Z,15.10
2023-01-13T08:26:49.270Z,18.17
2023-01-13T08:29:15.999Z,18.23
2023-01-13T08:31:42.744Z,20.13
2023-01-13T08:34:09.498Z,17.70
2023-01-13T08:36:36.271Z,20.73
2023-01-13T08:39:03.004Z,18.15
2023-01-13T08:41:48.402Z,18.77
2023-01-13T08:44:15.280Z,16.83
2023-01-13T08:46:42.027Z,21.58
2023-01-13T08:49:08.779Z,17.48
2023-01-13T08:51:35.514Z,19.48
2023-01-13T08:54:02.489Z,17.55
2023-01-13T08:56:29.253Z,23.23
2023-01-13T08:58:56.006Z,19.88
2023-01-13T09:01:22.809Z,18.73
2023-01-13T09:03:49.630Z,17.98
2023-01-13T09:06:16.292Z,18.05
2023-01-13T09:08:43.026Z,20.17
2023-01-13T09:11:28.291Z,20.50
2023-01-13T09:13:55.012Z,21.73
2023-01-13T09:16:21.722Z,18.40
2023-01-13T09:18:48.448Z,19.25
2023-01-13T09:21:15.183Z,14.48
2023-01-13T09:23:41.925Z,18.85
2023-01-13T09:26:08.649Z,18.25
2023-01-13T09:28:35.346Z,18.98
2023-01-13T09:31:02.171Z,15.98
2023-01-13T09:33:47.620Z,16.20
2023-01-13T09:36:14.384Z,16.40
2023-01-13T09:38:41.119Z,15.85
2023-01-13T09:41:27.935Z,16.52
2023-01-13T09:43:54.660Z,19.20
2023-01-13T09:46:40.317Z,17.00
2023-01-13T09:49:08.085Z,21.23
2023-01-13T09:51:35.266Z,16.63
2023-01-13T09:54:02.245Z,20.25
2023-01-13T09:56:28.979Z,15.25
2023-01-13T09:58:55.745Z,18.50
2023-01-13T10:01:22.489Z,11.82
2023-01-13T10:03:49.509Z,16.88
2023-01-13T10:06:16.705Z,17.42
2023-01-13T10:08:43.435Z,19.67
2023-01-13T10:11:29.015Z,14.55
2023-01-13T10:13:55.746Z,12.82
2023-01-13T10:16:22.493Z,13.32
2023-01-13T10:18:49.252Z,12.65
2023-01-13T10:21:16.009Z,17.15
2023-01-13T10:23:42.810Z,13.30
2023-01-13T10:26:09.598Z,12.90
2023-01-13T10:28:36.363Z,15.13
2023-01-13T10:31:03.080Z,17.95
2023-01-13T10:33:29.911Z,12.60
2023-01-13T10:35:56.684Z,11.95
2023-01-13T10:38:23.475Z,13.10
2023-01-13T10:40:50.194Z,16.23
2023-01-13T10:43:17.151Z,13.93
2023-01-13T10:45:43.886Z,19.13
2023-01-13T10:48:10.614Z,18.52
2023-01-13T10:50:37.348Z,31.42
2023-01-13T10:53:04.163Z,30.92
2023-01-13T10:55:32.152Z,16.88
2023-01-13T10:57:58.889Z,14.40
2023-01-13T11:00:25.605Z,15.95
2023-01-13T11:02:52.344Z,13.20
2023-01-13T11:05:19.113Z,13.98
2023-01-13T11:07:45.886Z,20.17
2023-01-13T11:10:12.553Z,13.65
2023-01-13T11:12:39.311Z,16.92
2023-01-13T11:15:06.125Z,13.82
2023-01-13T11:17:32.861Z,13.45
2023-01-13T11:19:59.631Z,14.98
2023-01-13T11:22:26.356Z,13.25
2023-01-13T11:24:53.117Z,12.18
2023-01-13T11:27:20.032Z,15.68
2023-01-13T11:29:46.708Z,16.85
2023-01-13T11:32:13.594Z,12.93
2023-01-13T11:34:40.353Z,14.85
2023-01-13T11:37:07.187Z,19.63
2023-01-13T11:39:33.969Z,17.27
2023-01-13T11:42:19.215Z,14.40
2023-01-13T11:44:45.928Z,14.95
2023-01-13T11:47:12.665Z,11.18
2023-01-13T11:49:39.529Z,14.77
2023-01-13T11:52:06.531Z,11.48
2023-01-13T11:54:34.110Z,11.00
2023-01-13T11:57:02.080Z,14.75
2023-01-13T11:59:28.765Z,12.68
2023-01-13T12:01:55.541Z,18.00
2023-01-13T12:04:22.365Z,14.32
2023-01-13T12:06:49.457Z,12.15
2023-01-13T12:09:16.215Z,14.40
2023-01-13T12:12:01.472Z,15.55
2023-01-13T12:14:28.252Z,13.23
2023-01-13T12:16:55.035Z,16.30
2023-01-13T12:19:21.808Z,16.45
2023-01-13T12:21:48.559Z,12.60
2023-01-13T12:24:15.275Z,10.57
2023-01-13T12:26:42.079Z,10.02
2023-01-13T12:29:08.805Z,14.85
2023-01-13T12:31:35.541Z,12.45
2023-01-13T12:34:02.247Z,15.88
2023-01-13T12:36:29.002Z,15.60
2023-01-13T12:38:55.682Z,16.10
2023-01-13T12:41:24.637Z,12.00
2023-01-13T12:44:10.171Z,14.60
2023-01-13T12:46:36.945Z,11.50
2023-01-13T12:49:04.800Z,12.90
2023-01-13T12:51:35.803Z,19.13
2023-01-13T12:54:02.519Z,11.60
2023-01-13T12:56:29.529Z,13.68
2023-01-13T12:58:56.222Z,13.85
2023-01-13T13:01:22.974Z,20.35
2023-01-13T13:03:49.920Z,13.07
2023-01-13T13:06:16.709Z,13.55
2023-01-13T13:08:43.409Z,13.18
2023-01-13T13:11:30.097Z,13.38
2023-01-13T13:13:56.884Z,13.18
2023-01-13T13:16:23.673Z,11.80
2023-01-13T13:18:50.469Z,12.75
2023-01-13T13:21:17.159Z,12.55
2023-01-13T13:23:49.771Z,20.55
2023-01-13T13:26:16.745Z,13.27
2023-01-13T13:28:43.416Z,14.35
2023-01-13T13:31:10.159Z,12.48
2023-01-13T13:33:39.004Z,14.57
2023-01-13T13:36:05.790Z,9.90
2023-01-13T13:38:51.369Z,13.73
2023-01-13T13:41:37.237Z,17.85
2023-01-13T13:44:22.808Z,13.05
2023-01-13T13:46:49.879Z,13.13
2023-01-13T13:49:16.608Z,11.95
2023-01-13T13:51:45.161Z,12.15
2023-01-13T13:54:12.085Z,10.38
2023-01-13T13:56:38.761Z,12.52
2023-01-13T13:59:05.512Z,10.40
2023-01-13T14:01:32.341Z,10.88
2023-01-13T14:03:59.063Z,12.88
2023-01-13T14:06:25.797Z,17.80
2023-01-13T14:08:52.455Z,12.57
2023-01-13T14:11:20.588Z,14.13
2023-01-13T14:13:47.312Z,12.73
2023-01-13T14:16:13.979Z,13.85
2023-01-13T14:18:40.725Z,13.90
2023-01-13T14:21:07.475Z,12.07
2023-01-13T14:23:34.306Z,12.02
2023-01-13T14:26:01.005Z,9.80
2023-01-13T14:28:27.985Z,15.23
2023-01-13T14:30:54.697Z,15.55
2023-01-13T14:33:21.482Z,13.98
2023-01-13T14:35:48.167Z,15.45
2023-01-13T14:38:16.044Z,11.00
2023-01-13T14:40:45.775Z,12.38
2023-01-13T14:43:12.479Z,11.48
2023-01-13T14:45:39.194Z,12.05
2023-01-13T14:48:05.910Z,15.05
2023-01-13T14:50:33.941Z,14.93
2023-01-13T14:53:00.820Z,13.18
2023-01-13T14:55:27.627Z,10.32
2023-01-13T14:57:54.361Z,9.57
2023-01-13T15:00:21.393Z,9.18
2023-01-13T15:02:48.297Z,12.95
2023-01-13T15:05:15.060Z,9.50
2023-01-13T15:07:41.761Z,13.45
2023-01-13T15:10:08.420Z,12.30
2023-01-13T15:12:35.897Z,11.02
2023-01-13T15:15:03.578Z,10.32
2023-01-13T15:17:30.366Z,10.32
2023-01-13T15:19:57.097Z,12.70
2023-01-13T15:22:23.961Z,11.43
2023-01-13T15:24:51.126Z,10.27
2023-01-13T15:27:17.879Z,8.40
2023-01-13T15:29:44.568Z,12.98
2023-01-13T15:32:11.288Z,9.93
2023-01-13T15:34:38.203Z,12.43
2023-01-13T15:37:04.922Z,9.55
2023-01-13T15:39:31.822Z,12.30
2023-01-13T15:42:17.420Z,9.48
2023-01-13T15:45:02.933Z,13.25
2023-01-13T15:47:29.663Z,11.00
2023-01-13T15:49:56.383Z,12.82
2023-01-13T15:52:23.140Z,17.60
2023-01-13T15:54:49.951Z,11.38
2023-01-13T15:57:16.666Z,11.38
2023-01-13T15:59:43.433Z,13.38
2023-01-13T16:02:10.127Z,16.75
2023-01-13T16:04:36.849Z,13.55
2023-01-13T16:07:03.540Z,13.50
2023-01-13T16:09:30.290Z,16.25
2023-01-13T16:11:57.326Z,14.52
2023-01-13T16:14:33.104Z,13.50
2023-01-13T16:16:59.907Z,14.15
2023-01-13T16:19:26.565Z,14.73
2023-01-13T16:21:53.288Z,16.52
2023-01-13T16:24:20.028Z,17.58
2023-01-13T16:26:46.734Z,19.48
2023-01-13T16:29:13.465Z,14.25
2023-01-13T16:31:40.268Z,16.90
2023-01-13T16:34:07.150Z,13.27
2023-01-13T16:36:33.874Z,16.52
2023-01-13T16:39:00.609Z,14.85
2023-01-13T16:41:27.400Z,16.15
2023-01-13T16:43:54.150Z,14.80
2023-01-13T16:46:20.897Z,15.68
2023-01-13T16:48:47.645Z,15.95
2023-01-13T16:51:14.444Z,16.17
2023-01-13T16:53:41.195Z,16.00
2023-01-13T16:56:07.904Z,16.20
2023-01-13T16:58:34.657Z,14.15
2023-01-13T17:01:01.471Z,20.83
2023-01-13T17:03:29.896Z,20.85
2023-01-13T17:05:56.637Z,22.08
2023-01-13T17:08:23.367Z,13.05
2023-01-13T17:10:50.093Z,22.20
2023-01-13T17:13:17.468Z,16.67
2023-01-13T17:15:44.189Z,23.13
2023-01-13T17:18:13.353Z,18.00
2023-01-13T17:20:40.285Z,14.70
2023-01-13T17:23:07.035Z,19.52
2023-01-13T17:25:33.777Z,19.77
2023-01-13T17:28:00.483Z,22.77
2023-01-13T17:30:27.228Z,17.08
2023-01-13T17:32:53.945Z,20.35
2023-01-13T17:35:24.717Z,19.77
2023-01-13T17:37:51.655Z,14.65
2023-01-13T17:40:18.380Z,14.75
2023-01-13T17:42:45.123Z,13.52
2023-01-13T17:45:12.595Z,13.25
2023-01-13T17:47:39.394Z,19.67
2023-01-13T17:50:06.137Z,21.52
2023-01-13T17:52:32.917Z,14.57
2023-01-13T17:54:59.644Z,17.85
2023-01-13T17:57:26.351Z,17.25
2023-01-13T17:59:53.107Z,18.17
2023-01-13T18:02:19.878Z,17.55
2023-01-13T18:04:46.727Z,22.42
2023-01-13T18:07:13.393Z,15.73
2023-01-13T18:09:40.261Z,15.85
2023-01-13T18:12:07.028Z,18.15
2023-01-13T18:14:33.783Z,18.55
2023-01-13T18:17:00.618Z,22.67
2023-01-13T18:19:46.238Z,21.15
2023-01-13T18:22:31.618Z,15.70
2023-01-13T18:25:16.919Z,17.42
2023-01-13T18:27:43.640Z,28.15
2023-01-13T18:30:10.322Z,17.33
2023-01-13T18:32:37.336Z,15.73
2023-01-13T18:35:09.775Z,21.52
2023-01-13T18:37:38.704Z,15.50
2023-01-13T18:40:05.560Z,16.77
2023-01-13T18:42:51.049Z,18.00
2023-01-13T18:45:17.749Z,18.02
2023-01-13T18:47:44.412Z,20.33
2023-01-13T18:50:13.791Z,17.73
2023-01-13T18:52:40.950Z,19.58
2023-01-13T18:55:07.687Z,18.98
2023-01-13T18:57:38.268Z,19.83
2023-01-13T19:00:04.961Z,25.00
2023-01-13T19:02:31.881Z,19.38
2023-01-13T19:04:58.640Z,19.75
2023-01-13T19:07:28.597Z,20.40
2023-01-13T19:09:55.746Z,17.80
2023-01-13T19:12:31.105Z,19.63
2023-01-13T19:14:57.877Z,21.27
2023-01-13T19:17:24.612Z,19.00
2023-01-13T19:19:51.692Z,15.32
2023-01-13T19:22:19.534Z,24.33
2023-01-13T19:24:46.299Z,20.02
2023-01-13T19:27:14.467Z,18.35
2023-01-13T19:29:48.788Z,23.02
2023-01-13T19:32:19.156Z,20.70
2023-01-13T19:34:47.747Z,23.52
2023-01-13T19:37:14.568Z,22.98
2023-01-13T19:39:41.326Z,21.52
2023-01-13T19:42:34.392Z,20.83
2023-01-13T19:45:19.640Z,20.77
2023-01-13T19:47:46.409Z,24.05
2023-01-13T19:50:13.682Z,21.98
2023-01-13T19:52:40.620Z,25.13
2023-01-13T19:55:07.321Z,27.23
2023-01-13T19:57:34.045Z,17.40
2023-01-13T20:00:00.772Z,21.27
2023-01-13T20:02:28.279Z,22.65
2023-01-13T20:04:55.982Z,26.75
2023-01-13T20:07:23.711Z,22.42
2023-01-13T20:09:50.756Z,19.58
2023-01-13T20:12:17.535Z,24.48
2023-01-13T20:14:44.604Z,26.10
2023-01-13T20:17:11.258Z,22.88
2023-01-13T20:19:38.018Z,24.40
2023-01-13T20:22:04.722Z,22.90
2023-01-13T20:24:31.655Z,19.05
2023-01-13T20:26:58.443Z,15.82
2023-01-13T20:29:25.180Z,21.40
2023-01-13T20:31:51.945Z,24.02
2023-01-13T20:34:19.164Z,27.80
2023-01-13T20:36:45.974Z,25.10
2023-01-13T20:39:12.658Z,23.30
2023-01-13T20:41:58.306Z,23.00
2023-01-13T20:44:25.046Z,26.45
2023-01-13T20:46:54.474Z,35.22
2023-01-13T20:49:21.260Z,26.95
2023-01-13T20:51:47.999Z,29.00
2023-01-13T20:54:14.748Z,24.25
2023-01-13T20:56:41.472Z,21.05
2023-01-13T20:59:08.202Z,21.27
2023-01-13T21:01:34.939Z,14.75
2023-01-13T21:04:01.720Z,25.92
2023-01-13T21:06:28.479Z,19.52
2023-01-13T21:08:55.224Z,31.65
2023-01-13T21:11:45.084Z,27.55
2023-01-13T21:14:30.483Z,23.75
2023-01-13T21:16:57.224Z,23.33
2023-01-13T21:19:23.879Z,23.67
2023-01-13T21:21:50.661Z,27.17
2023-01-13T21:24:17.434Z,22.65
2023-01-13T21:26:44.147Z,22.17
2023-01-13T21:29:10.907Z,22.40
2023-01-13T21:31:37.727Z,22.42
2023-01-13T21:34:05.159Z,26.73
2023-01-13T21:36:31.984Z,22.92
2023-01-13T21:38:58.819Z,20.92
2023-01-13T21:41:44.168Z,26.30
2023-01-13T21:44:29.718Z,24.65
2023-01-13T21:47:15.124Z,21.90
2023-01-13T21:49:44.419Z,19.98
2023-01-13T21:52:11.294Z,22.00
2023-01-13T21:54:58.009Z,21.90
2023-01-13T21:57:26.715Z,20.23
2023-01-13T21:59:53.913Z,25.88
2023-01-13T22:02:32.094Z,22.05
2023-01-13T22:04:58.920Z,26.05
2023-01-13T22:07:26.587Z,22.40
2023-01-13T22:09:53.394Z,23.48
2023-01-13T22:12:23.609Z,22.88
2023-01-13T22:14:50.363Z,27.90
2023-01-13T22:17:17.789Z,28.02
2023-01-13T22:19:44.579Z,24.35
2023-01-13T22:22:14.377Z,28.08
2023-01-13T22:24:44.117Z,27.13
2023-01-13T22:27:10.837Z,21.45
2023-01-13T22:29:37.801Z,23.70
2023-01-13T22:32:04.826Z,22.10
2023-01-13T22:34:31.670Z,21.95
2023-01-13T22:36:58.415Z,23.65
2023-01-13T22:39:25.146Z,27.25
2023-01-13T22:41:51.884Z,20.27
2023-01-13T22:44:18.655Z,25.42
2023-01-13T22:46:45.371Z,24.80
2023-01-13T22:49:12.103Z,21.80
2023-01-13T22:51:38.783Z,24.83
2023-01-13T22:54:05.543Z,23.95
2023-01-13T22:56:32.227Z,25.85
2023-01-13T22:58:58.931Z,19.88
2023-01-13T23:01:25.819Z,24.90
2023-01-13T23:03:52.617Z,24.67
2023-01-13T23:06:19.410Z,22.75
2023-01-13T23:08:46.118Z,21.33
2023-01-13T23:11:12.844Z,23.15
2023-01-13T23:13:39.690Z,19.27
2023-01-13T23:16:06.765Z,24.48
2023-01-13T23:18:34.369Z,18.52
2023-01-13T23:21:01.515Z,25.25
2023-01-13T23:23:28.680Z,23.27
2023-01-13T23:25:56.789Z,28.80
2023-01-13T23:28:23.968Z,25.08
2023-01-13T23:30:51.845Z,24.08
2023-01-13T23:33:18.718Z,23.00
2023-01-13T23:35:45.563Z,23.50
2023-01-13T23:38:12.455Z,27.83
2023-01-13T23:40:39.279Z,26.48
2023-01-13T23:43:06.019Z,23.83
2023-01-13T23:45:32.766Z,27.27
2023-01-13T23:47:59.518Z,20.15
2023-01-13T23:50:26.229Z,20.67
2023-01-13T23:52:53.482Z,26.80
2023-01-13T23:55:20.211Z,24.60
2023-01-13T23:57:46.920Z,26.15
